sensor_id;sensor_type;location;lat;lon;timestamp;pressure;altitude;pressure_sealevel;temperature;humidity
39954;BME280;25631;51.516;-0.470;2023-02-08T00:01:12;103563.62;;;-0.13;36.55
39954;BME280;25631;51.516;-0.470;2023-02-08T00:03:49;103569.56;;;-0.02;36.31
39954;BME280;25631;51.516;-0.470;2023-02-08T00:06:26;103564.99;;;0.28;36.24
39954;BME280;25631;51.516;-0.470;2023-02-08T00:09:03;103568.26;;;0.10;36.24
39954;BME280;25631;51.516;-0.470;2023-02-08T00:11:39;103574.69;;;-0.25;36.21
39954;BME280;25631;51.516;-0.470;2023-02-08T00:14:16;103574.84;;;0.10;36.25
39954;BME280;25631;51.516;-0.470;2023-02-08T00:16:52;103573.31;;;0.05;36.34
39954;BME280;25631;51.516;-0.470;2023-02-08T00:19:29;103571.57;;;-0.42;36.45
39954;BME280;25631;51.516;-0.470;2023-02-08T00:22:05;103571.81;;;-0.43;36.59
39954;BME280;25631;51.516;-0.470;2023-02-08T00:24:42;103569.14;;;0.01;36.70
39954;BME280;25631;51.516;-0.470;2023-02-08T00:27:18;103567.61;;;-0.16;36.78
39954;BME280;25631;51.516;-0.470;2023-02-08T00:29:55;103573.51;;;-0.02;36.80
39954;BME280;25631;51.516;-0.470;2023-02-08T00:32:31;103566.13;;;-0.25;36.77
39954;BME280;25631;51.516;-0.470;2023-02-08T00:35:08;103566.52;;;-0.14;36.66
39954;BME280;25631;51.516;-0.470;2023-02-08T00:37:45;103573.10;;;-0.32;36.63
39954;BME280;25631;51.516;-0.470;2023-02-08T00:40:21;103572.69;;;-0.36;36.64
39954;BME280;25631;51.516;-0.470;2023-02-08T00:42:58;103573.18;;;-0.26;36.57
39954;BME280;25631;51.516;-0.470;2023-02-08T00:45:34;103573.31;;;-0.38;36.63
39954;BME280;25631;51.516;-0.470;2023-02-08T00:48:11;103570.26;;;-0.48;36.74
39954;BME280;25631;51.516;-0.470;2023-02-08T00:50:57;103569.71;;;-0.57;36.71
39954;BME280;25631;51.516;-0.470;2023-02-08T00:53:35;103569.46;;;-0.20;36.65
39954;BME280;25631;51.516;-0.470;2023-02-08T00:56:14;103564.59;;;-0.34;36.62
39954;BME280;25631;51.516;-0.470;2023-02-08T00:58:51;103559.81;;;-0.25;36.56
39954;BME280;25631;51.516;-0.470;2023-02-08T01:01:27;103561.25;;;-0.30;36.59
39954;BME280;25631;51.516;-0.470;2023-02-08T01:04:04;103560.89;;;-0.43;36.67
39954;BME280;25631;51.516;-0.470;2023-02-08T01:06:41;103558.82;;;-0.51;36.79
39954;BME280;25631;51.516;-0.470;2023-02-08T01:09:18;103554.47;;;-0.32;36.91
39954;BME280;25631;51.516;-0.470;2023-02-08T01:11:54;103556.82;;;-0.44;36.94
39954;BME280;25631;51.516;-0.470;2023-02-08T01:14:31;103555.31;;;-0.36;36.93
39954;BME280;25631;51.516;-0.470;2023-02-08T01:17:07;103555.16;;;-0.58;36.89
39954;BME280;25631;51.516;-0.470;2023-02-08T01:19:44;103556.69;;;-0.59;36.81
39954;BME280;25631;51.516;-0.470;2023-02-08T01:22:21;103551.25;;;-0.40;36.75
39954;BME280;25631;51.516;-0.470;2023-02-08T01:24:57;103545.63;;;-0.55;36.75
39954;BME280;25631;51.516;-0.470;2023-02-08T01:27:34;103545.07;;;-0.52;36.79
39954;BME280;25631;51.516;-0.470;2023-02-08T01:30:12;103543.45;;;-0.74;36.78
39954;BME280;25631;51.516;-0.470;2023-02-08T01:32:48;103539.24;;;-0.72;36.71
39954;BME280;25631;51.516;-0.470;2023-02-08T01:35:25;103538.55;;;-0.85;36.62
39954;BME280;25631;51.516;-0.470;2023-02-08T01:38:01;103534.44;;;-0.68;36.60
39954;BME280;25631;51.516;-0.470;2023-02-08T01:40:38;103524.14;;;-0.74;36.56
39954;BME280;25631;51.516;-0.470;2023-02-08T01:43:20;103532.13;;;-0.61;36.58
39954;BME280;25631;51.516;-0.470;2023-02-08T01:45:57;103531.42;;;-0.71;36.66
39954;BME280;25631;51.516;-0.470;2023-02-08T01:48:37;103526.41;;;-0.90;36.73
39954;BME280;25631;51.516;-0.470;2023-02-08T01:51:19;103523.12;;;-0.74;36.78
39954;BME280;25631;51.516;-0.470;2023-02-08T01:53:57;103519.76;;;-0.95;36.81
39954;BME280;25631;51.516;-0.470;2023-02-08T01:56:39;103524.21;;;-0.84;36.84
39954;BME280;25631;51.516;-0.470;2023-02-08T01:59:20;103519.84;;;-1.01;36.81
39954;BME280;25631;51.516;-0.470;2023-02-08T02:01:59;103519.26;;;-0.64;36.82
39954;BME280;25631;51.516;-0.470;2023-02-08T02:04:36;103519.66;;;-1.07;36.78
39954;BME280;25631;51.516;-0.470;2023-02-08T02:07:13;103522.69;;;-0.95;36.73
39954;BME280;25631;51.516;-0.470;2023-02-08T02:09:57;103522.91;;;-0.85;36.59
39954;BME280;25631;51.516;-0.470;2023-02-08T02:12:36;103521.89;;;-0.98;36.61
39954;BME280;25631;51.516;-0.470;2023-02-08T02:15:14;103514.26;;;-0.74;36.65
39954;BME280;25631;51.516;-0.470;2023-02-08T02:17:50;103509.82;;;-0.87;36.71
39954;BME280;25631;51.516;-0.470;2023-02-08T02:20:37;103511.84;;;-1.00;36.74
39954;BME280;25631;51.516;-0.470;2023-02-08T02:23:30;103512.34;;;-0.91;36.76
39954;BME280;25631;51.516;-0.470;2023-02-08T02:26:30;103509.66;;;-0.98;36.77
39954;BME280;25631;51.516;-0.470;2023-02-08T02:29:32;103508.98;;;-0.92;36.77
39954;BME280;25631;51.516;-0.470;2023-02-08T02:32:25;103509.10;;;-0.73;36.74
39954;BME280;25631;51.516;-0.470;2023-02-08T02:35:11;103503.06;;;-0.93;36.76
39954;BME280;25631;51.516;-0.470;2023-02-08T02:37:56;103497.47;;;-1.05;36.72
39954;BME280;25631;51.516;-0.470;2023-02-08T02:40:40;103492.45;;;-1.01;36.73
39954;BME280;25631;51.516;-0.470;2023-02-08T02:43:23;103480.37;;;-1.29;36.73
39954;BME280;25631;51.516;-0.470;2023-02-08T02:46:06;103474.99;;;-1.20;36.72
39954;BME280;25631;51.516;-0.470;2023-02-08T02:48:48;103476.80;;;-1.11;36.71
39954;BME280;25631;51.516;-0.470;2023-02-08T02:51:31;103471.09;;;-1.22;36.67
39954;BME280;25631;51.516;-0.470;2023-02-08T02:54:12;103465.52;;;-0.96;36.73
39954;BME280;25631;51.516;-0.470;2023-02-08T02:56:54;103466.12;;;-1.37;36.78
39954;BME280;25631;51.516;-0.470;2023-02-08T02:59:32;103462.18;;;-1.22;36.87
39954;BME280;25631;51.516;-0.470;2023-02-08T03:02:10;103459.28;;;-1.39;36.87
39954;BME280;25631;51.516;-0.470;2023-02-08T03:04:50;103457.56;;;-1.33;36.92
39954;BME280;25631;51.516;-0.470;2023-02-08T03:07:41;103451.57;;;-1.20;36.97
39954;BME280;25631;51.516;-0.470;2023-02-08T03:10:33;103454.23;;;-1.61;36.96
39954;BME280;25631;51.516;-0.470;2023-02-08T03:13:21;103454.45;;;-1.20;37.00
39954;BME280;25631;51.516;-0.470;2023-02-08T03:16:10;103457.38;;;-1.60;36.95
39954;BME280;25631;51.516;-0.470;2023-02-08T03:19:01;103454.94;;;-1.21;36.93
39954;BME280;25631;51.516;-0.470;2023-02-08T03:21:45;103452.50;;;-1.31;36.76
39954;BME280;25631;51.516;-0.470;2023-02-08T03:24:28;103441.75;;;-1.64;36.70
39954;BME280;25631;51.516;-0.470;2023-02-08T03:27:11;103430.29;;;-1.54;36.64
39954;BME280;25631;51.516;-0.470;2023-02-08T03:29:55;103430.82;;;-1.42;36.73
39954;BME280;25631;51.516;-0.470;2023-02-08T03:32:38;103432.57;;;-1.13;36.80
39954;BME280;25631;51.516;-0.470;2023-02-08T03:35:23;103433.34;;;-1.36;36.83
39954;BME280;25631;51.516;-0.470;2023-02-08T03:38:04;103428.73;;;-1.58;36.82
39954;BME280;25631;51.516;-0.470;2023-02-08T03:40:45;103430.88;;;-1.64;36.85
39954;BME280;25631;51.516;-0.470;2023-02-08T03:43:26;103435.85;;;-1.59;36.91
39954;BME280;25631;51.516;-0.470;2023-02-08T03:46:09;103433.62;;;-1.60;36.84
39954;BME280;25631;51.516;-0.470;2023-02-08T03:48:52;103437.30;;;-1.68;36.85
39954;BME280;25631;51.516;-0.470;2023-02-08T03:51:32;103437.69;;;-1.82;36.94
39954;BME280;25631;51.516;-0.470;2023-02-08T03:54:14;103432.11;;;-1.95;36.88
39954;BME280;25631;51.516;-0.470;2023-02-08T03:56:56;103430.57;;;-1.71;36.94
39954;BME280;25631;51.516;-0.470;2023-02-08T03:59:40;103428.66;;;-1.90;36.98
39954;BME280;25631;51.516;-0.470;2023-02-08T04:02:20;103433.81;;;-1.77;37.02
39954;BME280;25631;51.516;-0.470;2023-02-08T04:04:57;103436.23;;;-2.04;37.02
39954;BME280;25631;51.516;-0.470;2023-02-08T04:07:36;103434.65;;;-1.81;36.95
39954;BME280;25631;51.516;-0.470;2023-02-08T04:10:12;103429.00;;;-1.94;36.92
39954;BME280;25631;51.516;-0.470;2023-02-08T04:12:49;103423.94;;;-1.83;36.96
39954;BME280;25631;51.516;-0.470;2023-02-08T04:15:25;103426.42;;;-1.91;37.06
39954;BME280;25631;51.516;-0.470;2023-02-08T04:18:02;103422.97;;;-2.07;37.10
39954;BME280;25631;51.516;-0.470;2023-02-08T04:20:39;103422.00;;;-1.98;37.19
39954;BME280;25631;51.516;-0.470;2023-02-08T04:23:16;103420.13;;;-2.06;37.11
39954;BME280;25631;51.516;-0.470;2023-02-08T04:25:52;103419.23;;;-2.00;37.13
39954;BME280;25631;51.516;-0.470;2023-02-08T04:28:29;103421.77;;;-2.17;37.16
39954;BME280;25631;51.516;-0.470;2023-02-08T04:31:06;103423.89;;;-1.97;37.14
39954;BME280;25631;51.516;-0.470;2023-02-08T04:33:42;103420.53;;;-2.11;37.08
39954;BME280;25631;51.516;-0.470;2023-02-08T04:36:19;103421.22;;;-1.96;37.06
39954;BME280;25631;51.516;-0.470;2023-02-08T04:38:55;103416.49;;;-2.04;37.08
39954;BME280;25631;51.516;-0.470;2023-02-08T04:41:32;103414.88;;;-2.39;37.07
39954;BME280;25631;51.516;-0.470;2023-02-08T04:44:09;103410.86;;;-2.08;37.08
39954;BME280;25631;51.516;-0.470;2023-02-08T04:46:45;103413.52;;;-2.09;37.01
39954;BME280;25631;51.516;-0.470;2023-02-08T04:49:22;103414.13;;;-2.11;36.98
39954;BME280;25631;51.516;-0.470;2023-02-08T04:51:58;103411.68;;;-2.32;36.90
39954;BME280;25631;51.516;-0.470;2023-02-08T04:54:35;103415.28;;;-2.17;36.97
39954;BME280;25631;51.516;-0.470;2023-02-08T04:57:12;103419.06;;;-2.25;37.07
39954;BME280;25631;51.516;-0.470;2023-02-08T04:59:50;103423.53;;;-2.31;37.08
39954;BME280;25631;51.516;-0.470;2023-02-08T05:02:26;103425.99;;;-2.25;37.06
39954;BME280;25631;51.516;-0.470;2023-02-08T05:05:03;103427.41;;;-2.38;36.99
39954;BME280;25631;51.516;-0.470;2023-02-08T05:07:40;103416.52;;;-2.52;36.99
39954;BME280;25631;51.516;-0.470;2023-02-08T05:10:16;103408.97;;;-2.51;37.03
39954;BME280;25631;51.516;-0.470;2023-02-08T05:12:53;103409.02;;;-2.39;37.07
39954;BME280;25631;51.516;-0.470;2023-02-08T05:15:30;103405.39;;;-2.31;37.17
39954;BME280;25631;51.516;-0.470;2023-02-08T05:18:06;103397.31;;;-2.22;37.18
39954;BME280;25631;51.516;-0.470;2023-02-08T05:20:43;103391.93;;;-2.41;37.09
39954;BME280;25631;51.516;-0.470;2023-02-08T05:23:19;103398.22;;;-2.17;37.06
39954;BME280;25631;51.516;-0.470;2023-02-08T05:25:56;103400.71;;;-2.48;37.06
39954;BME280;25631;51.516;-0.470;2023-02-08T05:28:33;103399.70;;;-2.43;36.92
39954;BME280;25631;51.516;-0.470;2023-02-08T05:31:12;103400.33;;;-2.11;36.85
39954;BME280;25631;51.516;-0.470;2023-02-08T05:33:49;103407.06;;;-2.42;36.91
39954;BME280;25631;51.516;-0.470;2023-02-08T05:36:26;103409.33;;;-2.30;36.90
39954;BME280;25631;51.516;-0.470;2023-02-08T05:39:03;103413.83;;;-1.87;36.78
39954;BME280;25631;51.516;-0.470;2023-02-08T05:41:39;103411.72;;;-2.50;36.77
39954;BME280;25631;51.516;-0.470;2023-02-08T05:44:16;103417.26;;;-2.31;36.82
39954;BME280;25631;51.516;-0.470;2023-02-08T05:46:53;103417.16;;;-2.63;36.81
39954;BME280;25631;51.516;-0.470;2023-02-08T05:49:29;103415.09;;;-2.50;36.84
39954;BME280;25631;51.516;-0.470;2023-02-08T05:52:06;103415.79;;;-2.31;36.78
39954;BME280;25631;51.516;-0.470;2023-02-08T05:54:43;103417.73;;;-2.31;36.81
39954;BME280;25631;51.516;-0.470;2023-02-08T05:57:19;103416.22;;;-2.44;36.85
39954;BME280;25631;51.516;-0.470;2023-02-08T05:59:56;103416.77;;;-2.26;36.86
39954;BME280;25631;51.516;-0.470;2023-02-08T06:02:32;103412.33;;;-2.47;36.80
39954;BME280;25631;51.516;-0.470;2023-02-08T06:05:09;103409.83;;;-2.37;36.75
39954;BME280;25631;51.516;-0.470;2023-02-08T06:07:46;103406.20;;;-2.48;36.73
39954;BME280;25631;51.516;-0.470;2023-02-08T06:10:22;103408.85;;;-2.67;36.58
39954;BME280;25631;51.516;-0.470;2023-02-08T06:12:59;103409.84;;;-2.29;36.63
39954;BME280;25631;51.516;-0.470;2023-02-08T06:15:35;103417.74;;;-2.18;36.69
39954;BME280;25631;51.516;-0.470;2023-02-08T06:18:12;103415.44;;;-2.89;36.62
39954;BME280;25631;51.516;-0.470;2023-02-08T06:20:52;103416.27;;;-2.65;36.67
39954;BME280;25631;51.516;-0.470;2023-02-08T06:23:29;103418.34;;;-2.38;36.74
39954;BME280;25631;51.516;-0.470;2023-02-08T06:26:06;103416.32;;;-2.65;36.74
39954;BME280;25631;51.516;-0.470;2023-02-08T06:28:42;103413.88;;;-2.43;36.80
39954;BME280;25631;51.516;-0.470;2023-02-08T06:31:18;103411.34;;;-2.45;36.84
39954;BME280;25631;51.516;-0.470;2023-02-08T06:33:55;103411.34;;;-2.55;36.83
39954;BME280;25631;51.516;-0.470;2023-02-08T06:36:31;103410.24;;;-2.81;36.78
39954;BME280;25631;51.516;-0.470;2023-02-08T06:39:08;103408.94;;;-2.51;36.65
39954;BME280;25631;51.516;-0.470;2023-02-08T06:41:45;103408.35;;;-2.45;36.63
39954;BME280;25631;51.516;-0.470;2023-02-08T06:44:22;103411.23;;;-2.45;36.66
39954;BME280;25631;51.516;-0.470;2023-02-08T06:46:59;103415.84;;;-2.66;36.58
39954;BME280;25631;51.516;-0.470;2023-02-08T06:49:35;103413.39;;;-2.64;36.45
39954;BME280;25631;51.516;-0.470;2023-02-08T06:52:12;103414.96;;;-2.43;36.39
39954;BME280;25631;51.516;-0.470;2023-02-08T06:54:49;103411.28;;;-2.65;36.38
39954;BME280;25631;51.516;-0.470;2023-02-08T06:57:26;103410.53;;;-2.57;36.28
39954;BME280;25631;51.516;-0.470;2023-02-08T07:00:04;103401.70;;;-2.41;36.26
39954;BME280;25631;51.516;-0.470;2023-02-08T07:02:41;103397.82;;;-3.04;36.14
39954;BME280;25631;51.516;-0.470;2023-02-08T07:05:18;103388.40;;;-2.47;36.15
39954;BME280;25631;51.516;-0.470;2023-02-08T07:07:55;103395.71;;;-2.49;36.32
39954;BME280;25631;51.516;-0.470;2023-02-08T07:10:32;103401.77;;;-3.06;36.53
39954;BME280;25631;51.516;-0.470;2023-02-08T07:13:09;103412.04;;;-2.80;36.56
39954;BME280;25631;51.516;-0.470;2023-02-08T07:15:46;103410.10;;;-2.63;36.60
39954;BME280;25631;51.516;-0.470;2023-02-08T07:18:23;103407.54;;;-2.60;36.52
39954;BME280;25631;51.516;-0.470;2023-02-08T07:20:59;103408.11;;;-2.61;36.54
39954;BME280;25631;51.516;-0.470;2023-02-08T07:23:36;103408.81;;;-2.69;36.58
39954;BME280;25631;51.516;-0.470;2023-02-08T07:26:13;103411.96;;;-2.71;36.55
39954;BME280;25631;51.516;-0.470;2023-02-08T07:28:50;103409.98;;;-2.80;36.52
39954;BME280;25631;51.516;-0.470;2023-02-08T07:31:27;103403.86;;;-2.74;36.61
39954;BME280;25631;51.516;-0.470;2023-02-08T07:34:06;103402.61;;;-2.82;36.68
39954;BME280;25631;51.516;-0.470;2023-02-08T07:36:42;103396.77;;;-2.76;36.67
39954;BME280;25631;51.516;-0.470;2023-02-08T07:39:19;103400.63;;;-2.93;36.74
39954;BME280;25631;51.516;-0.470;2023-02-08T07:41:56;103403.41;;;-3.28;36.79
39954;BME280;25631;51.516;-0.470;2023-02-08T07:44:33;103407.63;;;-2.73;36.85
39954;BME280;25631;51.516;-0.470;2023-02-08T07:47:09;103409.78;;;-2.57;36.96
39954;BME280;25631;51.516;-0.470;2023-02-08T07:49:46;103408.14;;;-2.74;36.96
39954;BME280;25631;51.516;-0.470;2023-02-08T07:52:23;103404.22;;;-2.97;37.02
39954;BME280;25631;51.516;-0.470;2023-02-08T07:55:00;103404.36;;;-2.56;37.14
39954;BME280;25631;51.516;-0.470;2023-02-08T07:57:36;103403.78;;;-2.64;37.15
39954;BME280;25631;51.516;-0.470;2023-02-08T08:00:15;103409.55;;;-2.33;37.12
39954;BME280;25631;51.516;-0.470;2023-02-08T08:02:52;103412.61;;;-2.63;37.07
39954;BME280;25631;51.516;-0.470;2023-02-08T08:05:29;103410.25;;;-2.55;37.06
39954;BME280;25631;51.516;-0.470;2023-02-08T08:08:06;103402.40;;;-2.24;36.95
39954;BME280;25631;51.516;-0.470;2023-02-08T08:10:42;103397.80;;;-2.58;36.96
39954;BME280;25631;51.516;-0.470;2023-02-08T08:13:19;103398.89;;;-2.38;37.03
39954;BME280;25631;51.516;-0.470;2023-02-08T08:15:55;103403.65;;;-2.35;37.10
39954;BME280;25631;51.516;-0.470;2023-02-08T08:18:32;103403.03;;;-2.97;37.13
39954;BME280;25631;51.516;-0.470;2023-02-08T08:21:09;103401.96;;;-2.46;37.04
39954;BME280;25631;51.516;-0.470;2023-02-08T08:23:46;103398.58;;;-2.62;36.94
39954;BME280;25631;51.516;-0.470;2023-02-08T08:26:22;103397.26;;;-2.47;36.84
39954;BME280;25631;51.516;-0.470;2023-02-08T08:28:59;103394.72;;;-2.40;36.93
39954;BME280;25631;51.516;-0.470;2023-02-08T08:31:35;103395.05;;;-2.52;37.13
39954;BME280;25631;51.516;-0.470;2023-02-08T08:34:17;103394.71;;;-2.30;37.00
39954;BME280;25631;51.516;-0.470;2023-02-08T08:36:54;103393.15;;;-2.23;37.05
39954;BME280;25631;51.516;-0.470;2023-02-08T08:39:30;103390.66;;;-2.55;37.18
39954;BME280;25631;51.516;-0.470;2023-02-08T08:42:07;103389.24;;;-2.42;37.20
39954;BME280;25631;51.516;-0.470;2023-02-08T08:44:44;103387.63;;;-2.34;37.27
39954;BME280;25631;51.516;-0.470;2023-02-08T08:47:20;103389.54;;;-2.34;37.24
39954;BME280;25631;51.516;-0.470;2023-02-08T08:49:57;103388.05;;;-2.28;37.33
39954;BME280;25631;51.516;-0.470;2023-02-08T08:52:34;103387.21;;;-2.32;37.37
39954;BME280;25631;51.516;-0.470;2023-02-08T08:55:11;103387.45;;;-2.25;37.40
39954;BME280;25631;51.516;-0.470;2023-02-08T08:57:47;103381.76;;;-1.96;37.26
39954;BME280;25631;51.516;-0.470;2023-02-08T09:00:24;103384.90;;;-2.04;37.29
39954;BME280;25631;51.516;-0.470;2023-02-08T09:03:01;103383.87;;;-2.14;37.36
39954;BME280;25631;51.516;-0.470;2023-02-08T09:05:37;103383.13;;;-2.06;37.42
39954;BME280;25631;51.516;-0.470;2023-02-08T09:08:14;103382.07;;;-2.01;37.51
39954;BME280;25631;51.516;-0.470;2023-02-08T09:10:50;103380.11;;;-2.01;37.70
39954;BME280;25631;51.516;-0.470;2023-02-08T09:13:27;103380.29;;;-1.95;37.92
39954;BME280;25631;51.516;-0.470;2023-02-08T09:16:05;103380.78;;;-1.84;38.00
39954;BME280;25631;51.516;-0.470;2023-02-08T09:18:42;103376.04;;;-2.00;38.11
39954;BME280;25631;51.516;-0.470;2023-02-08T09:21:21;103371.45;;;-1.93;38.08
39954;BME280;25631;51.516;-0.470;2023-02-08T09:23:59;103369.44;;;-1.63;38.14
39954;BME280;25631;51.516;-0.470;2023-02-08T09:26:37;103373.09;;;-1.55;38.19
39954;BME280;25631;51.516;-0.470;2023-02-08T09:29:13;103372.25;;;-1.41;38.22
39954;BME280;25631;51.516;-0.470;2023-02-08T09:31:50;103367.87;;;-1.54;38.35
39954;BME280;25631;51.516;-0.470;2023-02-08T09:34:27;103361.14;;;-1.46;38.36
39954;BME280;25631;51.516;-0.470;2023-02-08T09:37:04;103361.25;;;-1.37;38.40
39954;BME280;25631;51.516;-0.470;2023-02-08T09:39:40;103364.81;;;-1.43;38.42
39954;BME280;25631;51.516;-0.470;2023-02-08T09:42:28;103368.91;;;-1.08;38.47
39954;BME280;25631;51.516;-0.470;2023-02-08T09:45:27;103370.92;;;-1.11;38.41
39954;BME280;25631;51.516;-0.470;2023-02-08T09:48:16;103370.76;;;-1.13;38.28
39954;BME280;25631;51.516;-0.470;2023-02-08T09:50:56;103367.92;;;-1.11;38.34
39954;BME280;25631;51.516;-0.470;2023-02-08T09:53:36;103369.83;;;-1.25;38.36
39954;BME280;25631;51.516;-0.470;2023-02-08T09:56:18;103371.77;;;-1.23;38.40
39954;BME280;25631;51.516;-0.470;2023-02-08T09:58:58;103377.80;;;-1.26;38.38
39954;BME280;25631;51.516;-0.470;2023-02-08T10:01:36;103379.18;;;-0.83;38.36
39954;BME280;25631;51.516;-0.470;2023-02-08T10:04:23;103380.24;;;-0.81;38.36
39954;BME280;25631;51.516;-0.470;2023-02-08T10:07:01;103380.89;;;-0.87;38.19
39954;BME280;25631;51.516;-0.470;2023-02-08T10:09:37;103382.35;;;-0.98;38.19
39954;BME280;25631;51.516;-0.470;2023-02-08T10:12:20;103380.97;;;-0.87;38.14
39954;BME280;25631;51.516;-0.470;2023-02-08T10:15:08;103378.03;;;-0.48;38.30
39954;BME280;25631;51.516;-0.470;2023-02-08T10:18:07;103369.83;;;-0.57;38.29
39954;BME280;25631;51.516;-0.470;2023-02-08T10:21:00;103369.49;;;-0.48;38.28
39954;BME280;25631;51.516;-0.470;2023-02-08T10:23:52;103371.97;;;-0.65;38.14
39954;BME280;25631;51.516;-0.470;2023-02-08T10:26:36;103371.53;;;-0.51;38.24
39954;BME280;25631;51.516;-0.470;2023-02-08T10:30:07;103367.24;;;-0.53;38.17
39954;BME280;25631;51.516;-0.470;2023-02-08T10:32:53;103366.48;;;-0.41;38.18
39954;BME280;25631;51.516;-0.470;2023-02-08T10:35:36;103366.01;;;-0.18;38.15
39954;BME280;25631;51.516;-0.470;2023-02-08T10:38:23;103366.19;;;0.15;38.07
39954;BME280;25631;51.516;-0.470;2023-02-08T10:41:01;103367.60;;;0.02;38.13
39954;BME280;25631;51.516;-0.470;2023-02-08T10:43:44;103366.86;;;-0.11;38.13
39954;BME280;25631;51.516;-0.470;2023-02-08T10:46:29;103362.93;;;-0.11;38.15
39954;BME280;25631;51.516;-0.470;2023-02-08T10:49:11;103363.16;;;-0.16;38.22
39954;BME280;25631;51.516;-0.470;2023-02-08T10:51:52;103360.83;;;-0.05;38.25
39954;BME280;25631;51.516;-0.470;2023-02-08T10:54:29;103360.76;;;0.11;38.50
39954;BME280;25631;51.516;-0.470;2023-02-08T10:57:11;103354.46;;;0.16;38.49
39954;BME280;25631;51.516;-0.470;2023-02-08T10:59:52;103348.44;;;0.25;38.68
39954;BME280;25631;51.516;-0.470;2023-02-08T11:02:31;103342.93;;;0.31;38.87
39954;BME280;25631;51.516;-0.470;2023-02-08T11:05:10;103338.26;;;0.46;39.01
39954;BME280;25631;51.516;-0.470;2023-02-08T11:08:04;103338.79;;;0.47;39.16
39954;BME280;25631;51.516;-0.470;2023-02-08T11:10:45;103333.54;;;0.33;39.36
39954;BME280;25631;51.516;-0.470;2023-02-08T11:13:34;103335.44;;;0.45;39.22
39954;BME280;25631;51.516;-0.470;2023-02-08T11:16:19;103337.95;;;0.50;39.32
39954;BME280;25631;51.516;-0.470;2023-02-08T11:18:58;103337.09;;;0.65;39.27
39954;BME280;25631;51.516;-0.470;2023-02-08T11:21:36;103337.31;;;0.70;39.24
39954;BME280;25631;51.516;-0.470;2023-02-08T11:24:26;103336.85;;;0.99;39.13
39954;BME280;25631;51.516;-0.470;2023-02-08T11:27:14;103331.30;;;1.02;39.08
39954;BME280;25631;51.516;-0.470;2023-02-08T11:30:17;103331.55;;;1.19;39.04
39954;BME280;25631;51.516;-0.470;2023-02-08T11:33:27;103327.73;;;1.35;38.98
39954;BME280;25631;51.516;-0.470;2023-02-08T11:36:06;103323.21;;;1.08;39.01
39954;BME280;25631;51.516;-0.470;2023-02-08T11:38:43;103318.30;;;1.23;38.97
39954;BME280;25631;51.516;-0.470;2023-02-08T11:41:20;103323.18;;;1.01;39.05
39954;BME280;25631;51.516;-0.470;2023-02-08T11:44:01;103325.96;;;1.10;38.94
39954;BME280;25631;51.516;-0.470;2023-02-08T11:46:45;103320.38;;;1.08;39.09
39954;BME280;25631;51.516;-0.470;2023-02-08T11:49:24;103313.25;;;0.60;39.23
39954;BME280;25631;51.516;-0.470;2023-02-08T11:52:04;103309.65;;;1.17;39.24
39954;BME280;25631;51.516;-0.470;2023-02-08T11:54:41;103301.05;;;0.94;39.28
39954;BME280;25631;51.516;-0.470;2023-02-08T11:57:20;103293.41;;;0.94;39.23
39954;BME280;25631;51.516;-0.470;2023-02-08T12:00:17;103288.22;;;1.07;39.13
39954;BME280;25631;51.516;-0.470;2023-02-08T12:02:57;103287.21;;;1.41;39.16
39954;BME280;25631;51.516;-0.470;2023-02-08T12:05:41;103278.82;;;1.59;39.07
39954;BME280;25631;51.516;-0.470;2023-02-08T12:08:26;103272.92;;;1.83;38.87
39954;BME280;25631;51.516;-0.470;2023-02-08T12:11:13;103273.65;;;2.02;38.79
39954;BME280;25631;51.516;-0.470;2023-02-08T12:14:02;103266.33;;;2.10;38.64
39954;BME280;25631;51.516;-0.470;2023-02-08T12:17:03;103259.20;;;2.10;38.53
39954;BME280;25631;51.516;-0.470;2023-02-08T12:20:02;103252.85;;;2.29;38.38
39954;BME280;25631;51.516;-0.470;2023-02-08T12:22:51;103251.08;;;2.22;38.29
39954;BME280;25631;51.516;-0.470;2023-02-08T12:25:40;103244.24;;;2.31;38.15
39954;BME280;25631;51.516;-0.470;2023-02-08T12:28:27;103234.57;;;2.49;38.06
39954;BME280;25631;51.516;-0.470;2023-02-08T12:31:15;103227.60;;;2.39;38.13
39954;BME280;25631;51.516;-0.470;2023-02-08T12:34:04;103217.53;;;2.75;37.64
39954;BME280;25631;51.516;-0.470;2023-02-08T12:36:55;103208.43;;;2.80;37.22
39954;BME280;25631;51.516;-0.470;2023-02-08T12:39:43;103203.49;;;2.82;36.57
39954;BME280;25631;51.516;-0.470;2023-02-08T12:42:36;103198.38;;;3.17;36.80
39954;BME280;25631;51.516;-0.470;2023-02-08T12:45:42;103190.85;;;3.15;36.28
39954;BME280;25631;51.516;-0.470;2023-02-08T12:48:34;103185.11;;;3.25;36.06
39954;BME280;25631;51.516;-0.470;2023-02-08T12:51:21;103180.32;;;3.22;35.66
39954;BME280;25631;51.516;-0.470;2023-02-08T12:54:03;103177.99;;;3.47;35.46
39954;BME280;25631;51.516;-0.470;2023-02-08T12:56:45;103176.64;;;3.08;35.21
39954;BME280;25631;51.516;-0.470;2023-02-08T12:59:27;103175.25;;;3.53;35.01
39954;BME280;25631;51.516;-0.470;2023-02-08T13:02:13;103172.63;;;3.23;34.79
39954;BME280;25631;51.516;-0.470;2023-02-08T13:04:56;103168.81;;;3.45;34.59
39954;BME280;25631;51.516;-0.470;2023-02-08T13:07:39;103162.67;;;3.84;34.77
39954;BME280;25631;51.516;-0.470;2023-02-08T13:10:21;103155.55;;;3.81;34.89
39954;BME280;25631;51.516;-0.470;2023-02-08T13:13:11;103152.88;;;4.06;35.13
39954;BME280;25631;51.516;-0.470;2023-02-08T13:15:55;103142.95;;;4.23;34.99
39954;BME280;25631;51.516;-0.470;2023-02-08T13:18:36;103137.26;;;4.17;34.76
39954;BME280;25631;51.516;-0.470;2023-02-08T13:21:16;103129.10;;;4.54;34.75
39954;BME280;25631;51.516;-0.470;2023-02-08T13:23:55;103120.53;;;4.51;34.63
39954;BME280;25631;51.516;-0.470;2023-02-08T13:26:35;103117.72;;;4.84;34.42
39954;BME280;25631;51.516;-0.470;2023-02-08T13:29:17;103108.74;;;5.05;34.42
39954;BME280;25631;51.516;-0.470;2023-02-08T13:31:58;103100.96;;;5.03;34.33
39954;BME280;25631;51.516;-0.470;2023-02-08T13:34:39;103094.86;;;4.91;33.96
39954;BME280;25631;51.516;-0.470;2023-02-08T13:37:20;103093.56;;;5.11;33.60
39954;BME280;25631;51.516;-0.470;2023-02-08T13:40:01;103093.36;;;4.90;33.79
39954;BME280;25631;51.516;-0.470;2023-02-08T13:42:41;103089.55;;;5.09;33.68
39954;BME280;25631;51.516;-0.470;2023-02-08T13:45:26;103086.87;;;4.67;33.12
39954;BME280;25631;51.516;-0.470;2023-02-08T13:48:06;103083.31;;;4.88;33.05
39954;BME280;25631;51.516;-0.470;2023-02-08T13:50:46;103081.01;;;4.98;33.26